India

Resources for India vACC

Active Sector File
VABB_SMR-master.zip | Release Date 8/31/2017 | Downloads 51 | File Size 7.59 MB
VABF-master.zip | Realease Date 7/14/2017 | Downloads 28 | File Size 6.55 MB
VECF-master.zip | Release Date 5/24/2017 | Downloads 33 | File Size 6.87 MB
VIDF-master.zip | Release Date 8/24/2017 | Downloads 27 | File Size 6.54 MB
VOMF-master.zip | Release Date 7/21/2017 | Downloads 27 | File Size 6.62 MB 

VATSIM Metar for India
Mumbai
VABP 221030Z 02005KT 3000 HZ SCT020 21/16 Q1018 NOSIG
VABO 221030Z 07005KT 6000 NSC 28/14 Q1014 NOSIG
VAJJ 221030Z 26006KT 5000 FU NSC 29/20 Q1013 NOSIG
VAAU 221000Z 19003KT 5000 HZ FEW020 30/16 Q1017 NOSIG
VAOZ 221030Z 32005KT 6000 SCT030 29/15 Q1016 NOSIG
VAPR 221000Z 01012G22KT 6000 NSC 30/09 Q1015
VABB 221030Z 32007KT 3500 FU NSC 31/19 Q1013 NOSIG
VANP 221030Z 20006KT 3000 HZ FEW020 28/18 Q1016 NOSIG
VASD 221030Z 13002KT 5000 HZ SCT020 28/09 Q1016 NOSIG
VAAH 221030Z 04008KT 5000 FU NSC 28/12 Q1016 NOSIG
VAJB 221000Z 01008KT 2500 HZ SCT020 24/18 Q1018
VARK 221000Z 02012KT 6000 NSC 28/13 Q1016
VAUD 220900Z 07006KT 4000 HZ FEW100 23/12 Q1020 NOSIG
VASU 221030Z 36006KT 6000 NSC 30/16 Q1014 NOSIG
VAID 221000Z 01007KT 2500 HZ FEW020 24/21 Q1017 NOSIG
VABV 220430Z 31005KT 2500 FU NSC 18/08 Q1019

Kolkata
VEMR 220700Z 00000KT 4000 HZ FEW020 23/11 Q1016
VELR 221030Z 03003KT 3500 BR SCT020 OVC090 19/16 Q1016
VEBS 221030Z 34005KT 4000 HZ NSC 29/15 Q1015 NOSIG
VERC 221030Z 02002KT 6000 SCT020 SCT100 24/13 Q1018 NOSIG
VELP 221030Z 01004KT 4000 HZ FEW100 21/15 Q1016 NOSIG
VEPY 220900Z 20006KT 2000 HZ SCT015 SCT025 12/05 Q1018 NOSIG
VEBN 221030Z 29004KT 2500 HZ NSC 19/13 Q1016 NOSIG
VEGT 221030Z 28003KT 2500 HZ FEW020 23/12 Q1015 NOSIG
VEDG 221030Z 30003KT 3000 HZ NSC 24/12 Q1016 NOSIG
VEIM 221030Z 25004KT 5000 HZ FEW018 20/08 Q1015 NOSIG
VEGY 221030Z 33004KT 3000 HZ FEW100 22/11 Q1017 NOSIG
VEMN 221030Z 01003KT 4000 HZ FEW010 SCT020 BKN100 20/13 Q1016 BECMG 3000 BR
VEAT 221030Z 33002KT 4500 HZ FEW100 23/14 Q1016 NOSIG
VEJH 221000Z 00000KT 3000 HZ NSC 29/16 Q1016
VEBI 220800Z 30004KT 5000 HZ FEW020 17/07 Q1018
VEKO 220900Z 07005 KT 3000 NSC NSC 21/10 Q1018
VERP 221000Z 22004KT 3000 HZ NSC 30/14 Q1016 NOSIG
VEPT 221030Z 30003KT 4500 HZ NSC 20/11 Q1016 NOSIG
VECC 221030Z 30003KT 3500 HZ NSC 24/15 Q1015 NOSIG
VEJS 221000Z 00000KT 3000 HZ NSC 28/15 Q1015

Delhi
VIDP 221000Z 27006KT 1000 R28/1200 R29/1200 BR FEW100 14/12 Q1019 NOSIG
VILK 221000Z 27006KT 2000 HZ NSC 20/12 Q1017 NOSIG
VIJP 220930Z 32005KT 3000 HZ FEW030 SCT100 22/07 Q1019 NOSIG
VIAR 221000Z 31010KT 5000 NSC 18/05 Q1021 NOSIG

Chennai
VOTK 221030Z 07010G20KT 6000 FEW020 SCT025 31/25 Q1011 NOSIG
VOND 221030Z 14005KT 7000 NSC 31/16 Q1015 NOSIG
VOMD 221030Z 05008KT 8000 SCT020 32/19 Q1012 NOSIG
VOHS 221030Z 09005KT 6000 NSC 29/15 Q1017 NOSIG
VOGO 221000Z 31011KT 6000 NSC 31/22 Q1010 NOSIG
VOML 221030Z 29008KT CAVOK 32/16 Q1010 NOSIG
VOTV 221030Z 32007KT 6000 FEW015 31/23 Q1009 NOSIG
VOBM 221030Z 09010KT CAVOK 30/06 Q1016
VOMM 221030Z 07010KT 5000 HZ SCT020 SCT025 29/22 Q1014 NOSIG
VOKN 221030Z 24009KT 6000 FEW015 32/22 Q1009 NOSIG
VOVZ 221000Z 13009KT 3000 HZ FU FEW018 27/21 Q1015 NOSIG
VOBZ 221030Z 10005KT 5000 HZ NSC 31/21 Q1014 NOSIG
VOTR 221030Z 07012KT 6000 FEW016 SCT020 31/21 Q1012 NOSIG
VOBL 221030Z 11010KT 9999 NSC 28/13 Q1017 NOSIG
VOCL 221030Z 28007KT 7000 FEW015 34/24 Q1009 NOSIG
VOCP 221030Z 11014KT 6000 FEW020 31/19 Q1013
VORY 221030Z 14007KT 5000 HZ FEW020 30/21 Q1014 NOSIG
VOSM 220900Z 08005KT 8000 FEW020 32/21 Q1013 NOSIG
VOHB 220900Z 06004KT CAVOK 31/14 Q1018
VOPC 220800Z 07010G15KT 6000 SCT015 31/23 Q1016 NOSIG
VOPB 220700Z 05010KT 6000 FEW020 30/24 Q1014 NOSIG
VOAT 220430Z 04004KT 6000 FEW015 29/24 Q1014 NOSIG
VOCI 221030Z 24010KT 6000 FEW020 34/21 Q1008 NOSIG
VOTP 221030Z 06010KT 7000 SCT020 30/20 Q1013
VOCB 221030Z 07005KT 7000 NSC 32/15 Q1013 NOSIG
VOMY 221030Z 05012KT CAVOK 30/12 Q1015
VOBG 221030Z 14007KT CAVOK 29/15 Q1016 NOSIG
VOHY 221030Z 11006KT 6000 NSC 29/18 Q1018 NOSIG